Terminal Aerodrome Forecast
Issued by NWS

Home | Current Version | Previous Version | Text Only | Print | Product List | Glossary On
Versions: 1 2 3 4 5 6 7 8 9 10 11 12 13 14 15 16 17
000
FTAK31 PANC 241128
TAFAVD
TAF
PAVD 241128Z 2412/2512 09004KT P6SM FEW020 BKN040
     FM242200 25008KT P6SM VCSH SCT045 OVC070
     FM250400 08004KT P6SM VCSH BKN050 OVC080
      AMD LTD TO CLD VIS AND WIND=

USA.gov is the U.S. government's official web portal to all federal, state and local government web resources and services.